Terminal Aerodrome Forecast
Issued by NWS Burlington, VT

Home | Current Version | Previous Version | Text Only | Print | Product List | Glossary On
Versions: 1 2 3 4 5 6 7 8 9 10 11 12 13
000
FTUS41 KBTV 210500
TAFBTV
TAF
KBTV 210531Z 2106/2206 13004KT P6SM VCSH SCT025 BKN050
     FM210900 14005KT P6SM -SHRA SCT025 BKN040
      TEMPO 2111/2115 3SM SHRA OVC025
     FM211500 15007KT P6SM -SHRA OVC035
     FM211800 14006KT P6SM SCT028 OVC045=

USA.gov is the U.S. government's official web portal to all federal, state and local government web resources and services.